createdAt,value
2023-04-30T00:04:56.212Z,100.00
2023-04-30T00:09:57.485Z,100.00
2023-04-30T00:14:58.717Z,100.00
2023-04-30T00:20:00.517Z,100.00
2023-04-30T00:25:01.785Z,100.00
2023-04-30T00:30:02.847Z,100.00
2023-04-30T00:35:04.440Z,100.00
2023-04-30T00:40:06.220Z,100.00
2023-04-30T00:45:07.849Z,100.00
2023-04-30T00:50:09.516Z,100.00
2023-04-30T00:55:12.410Z,100.00
2023-04-30T01:00:14.255Z,100.00
2023-04-30T01:05:15.734Z,100.00
2023-04-30T01:10:17.740Z,100.00
2023-04-30T01:15:21.735Z,100.00
2023-04-30T01:20:25.615Z,100.00
2023-04-30T01:25:38.895Z,100.00
2023-04-30T01:30:44.072Z,100.00
2023-04-30T01:36:23.121Z,100.00
2023-04-30T01:41:50.033Z,100.00
2023-04-30T01:47:02.030Z,100.00
2023-04-30T01:52:14.950Z,100.00
2023-04-30T01:57:23.282Z,100.00
2023-04-30T02:02:24.442Z,100.00
2023-04-30T02:07:47.500Z,100.00
2023-04-30T02:12:48.570Z,100.00
2023-04-30T02:17:49.739Z,100.00
2023-04-30T02:22:52.365Z,100.00
2023-04-30T02:27:53.330Z,100.00
2023-04-30T02:32:54.352Z,100.00
2023-04-30T02:37:55.382Z,100.00
2023-04-30T02:42:56.813Z,100.00
2023-04-30T02:47:58.186Z,100.00
2023-04-30T02:52:59.405Z,100.00
2023-04-30T02:58:00.460Z,100.00
2023-04-30T03:03:01.600Z,99.97
2023-04-30T03:08:02.803Z,100.00
2023-04-30T03:13:03.818Z,100.00
2023-04-30T03:18:05.512Z,100.00
2023-04-30T03:23:06.552Z,100.00
2023-04-30T03:28:07.599Z,100.00
2023-04-30T03:33:08.889Z,100.00
2023-04-30T03:38:10.130Z,100.00
2023-04-30T03:43:11.569Z,100.00
2023-04-30T03:48:12.651Z,100.00
2023-04-30T03:53:13.685Z,100.00
2023-04-30T03:58:15.118Z,100.00
2023-04-30T04:07:13.888Z,100.00
2023-04-30T04:12:15.851Z,100.00
2023-04-30T04:17:18.059Z,100.00
2023-04-30T04:22:19.904Z,100.00
2023-04-30T04:27:22.277Z,100.00
2023-04-30T04:32:24.739Z,99.99
2023-04-30T04:37:27.387Z,99.63
2023-04-30T04:42:29.222Z,99.55
2023-04-30T04:47:31.458Z,99.02
2023-04-30T04:52:33.406Z,99.49
2023-04-30T04:57:35.277Z,97.51
2023-04-30T05:02:37.144Z,96.57
2023-04-30T05:07:39.052Z,96.61
2023-04-30T05:12:40.794Z,95.29
2023-04-30T05:17:42.643Z,94.53
2023-04-30T05:22:44.803Z,95.18
2023-04-30T05:27:46.598Z,93.76
2023-04-30T05:32:52.049Z,93.41
2023-04-30T05:37:53.907Z,91.93
2023-04-30T05:42:56.293Z,90.68
2023-04-30T05:47:58.471Z,90.75
2023-04-30T05:53:01.034Z,90.99
2023-04-30T05:58:02.725Z,90.24
2023-04-30T06:03:04.527Z,87.37
2023-04-30T06:08:06.204Z,84.01
2023-04-30T06:13:08.045Z,82.91
2023-04-30T06:18:09.818Z,80.95
2023-04-30T06:23:11.610Z,80.43
2023-04-30T06:28:13.557Z,78.10
2023-04-30T06:33:15.586Z,77.55
2023-04-30T06:38:18.385Z,76.00
2023-04-30T06:43:20.108Z,75.57
2023-04-30T06:48:22.239Z,75.50
2023-04-30T06:53:24.031Z,74.70
2023-04-30T06:58:25.815Z,76.14
2023-04-30T07:03:28.152Z,71.11
2023-04-30T07:08:29.927Z,69.60
2023-04-30T07:13:31.640Z,66.47
2023-04-30T07:18:33.370Z,66.31
2023-04-30T07:23:35.252Z,65.67
2023-04-30T07:28:36.961Z,62.42
2023-04-30T07:33:38.634Z,63.42
2023-04-30T07:38:40.328Z,62.97
2023-04-30T07:43:42.460Z,60.61
2023-04-30T07:48:44.639Z,62.04
2023-04-30T07:53:47.113Z,59.75
2023-04-30T07:58:48.833Z,58.40
2023-04-30T08:03:50.997Z,56.62
2023-04-30T08:08:53.414Z,55.09
2023-04-30T08:13:56.018Z,54.27
2023-04-30T08:18:57.940Z,54.06
2023-04-30T08:23:59.692Z,54.43
2023-04-30T08:29:01.461Z,53.67
2023-04-30T08:34:03.200Z,51.91
2023-04-30T08:39:04.920Z,49.87
2023-04-30T08:44:08.446Z,51.39
2023-04-30T08:49:10.785Z,49.63
2023-04-30T08:54:14.204Z,48.97
2023-04-30T08:59:16.190Z,51.26
2023-04-30T09:04:18.479Z,48.46
2023-04-30T09:09:20.735Z,46.11
2023-04-30T09:14:27.282Z,43.69
2023-04-30T09:19:30.819Z,44.69
2023-04-30T09:24:47.118Z,43.32
2023-04-30T09:29:49.172Z,42.50
2023-04-30T09:34:51.288Z,43.73
2023-04-30T09:39:56.621Z,42.01
2023-04-30T09:44:58.713Z,42.84
2023-04-30T09:50:00.844Z,42.97
2023-04-30T09:55:03.156Z,41.05
2023-04-30T10:00:10.509Z,40.75
2023-04-30T10:05:12.491Z,41.30
2023-04-30T10:10:15.077Z,41.49
2023-04-30T10:15:27.359Z,42.45
2023-04-30T10:20:30.541Z,42.85
2023-04-30T10:25:32.946Z,42.90
2023-04-30T10:30:38.199Z,42.42
2023-04-30T10:35:49.883Z,42.55
2023-04-30T10:40:57.609Z,41.80
2023-04-30T10:46:00.274Z,41.69
2023-04-30T10:51:02.182Z,41.82
2023-04-30T10:56:09.283Z,41.14
2023-04-30T11:01:15.725Z,39.85
2023-04-30T11:06:20.396Z,40.72
2023-04-30T11:11:23.819Z,40.75
2023-04-30T11:16:35.089Z,40.23
2023-04-30T11:22:03.036Z,39.35
2023-04-30T11:27:06.268Z,36.75
2023-04-30T11:32:08.515Z,38.07
2023-04-30T11:37:13.956Z,37.55
2023-04-30T11:42:20.192Z,38.29
2023-04-30T11:47:21.927Z,38.12
2023-04-30T11:52:25.822Z,37.39
2023-04-30T11:57:35.030Z,36.54
2023-04-30T12:02:36.878Z,36.44
2023-04-30T12:07:39.883Z,36.47
2023-04-30T12:12:44.019Z,35.77
2023-04-30T12:17:47.078Z,34.98
2023-04-30T12:22:49.834Z,34.67
2023-04-30T12:27:53.274Z,35.24
2023-04-30T12:32:58.638Z,35.64
2023-04-30T12:38:06.016Z,35.78
2023-04-30T12:43:09.426Z,33.98
2023-04-30T12:48:11.958Z,34.56
2023-04-30T12:53:13.828Z,34.46
2023-04-30T12:58:16.735Z,32.49
2023-04-30T13:03:21.497Z,31.42
2023-04-30T13:08:23.622Z,33.23
2023-04-30T13:13:26.209Z,32.59
2023-04-30T13:18:28.354Z,31.05
2023-04-30T13:23:31.943Z,30.43
2023-04-30T13:28:35.545Z,31.85
2023-04-30T13:33:37.822Z,30.34
2023-04-30T13:38:39.715Z,30.83
2023-04-30T13:43:43.068Z,29.65
2023-04-30T13:48:48.208Z,29.20
2023-04-30T13:53:50.093Z,28.43
2023-04-30T13:58:52.372Z,29.01
2023-04-30T14:03:54.754Z,29.26
2023-04-30T14:08:57.340Z,28.66
2023-04-30T14:13:59.026Z,28.20
2023-04-30T14:19:00.945Z,27.45
2023-04-30T14:24:02.982Z,28.69
2023-04-30T14:29:04.710Z,28.22
2023-04-30T14:34:06.450Z,28.73
2023-04-30T14:39:08.938Z,28.46
2023-04-30T14:44:10.698Z,29.40
2023-04-30T14:49:12.806Z,29.56
2023-04-30T14:54:14.665Z,28.61
2023-04-30T14:59:16.625Z,27.96
2023-04-30T15:04:18.384Z,28.07
2023-04-30T15:09:20.184Z,28.11
2023-04-30T15:14:21.887Z,28.30
2023-04-30T15:19:24.457Z,28.69
2023-04-30T15:24:26.130Z,28.05
2023-04-30T15:29:27.936Z,28.37
2023-04-30T15:34:29.645Z,27.72
2023-04-30T15:39:31.815Z,28.44
2023-04-30T15:44:33.551Z,28.59
2023-04-30T15:49:35.515Z,27.79
2023-04-30T15:54:37.234Z,27.64
2023-04-30T15:59:38.889Z,27.86
2023-04-30T16:04:41.722Z,28.29
2023-04-30T16:09:45.801Z,27.73
2023-04-30T16:14:47.577Z,28.74
2023-04-30T16:19:49.327Z,27.92
2023-04-30T16:24:51.370Z,28.04
2023-04-30T16:29:53.533Z,28.42
2023-04-30T16:34:55.850Z,27.84
2023-04-30T16:39:57.922Z,28.15
2023-04-30T16:44:59.925Z,28.47
2023-04-30T16:50:02.782Z,28.85
2023-04-30T16:55:05.521Z,29.09
2023-04-30T17:00:14.254Z,28.07
2023-04-30T17:05:16.275Z,28.51
2023-04-30T17:10:19.660Z,28.28
2023-04-30T17:15:21.844Z,28.63
2023-04-30T17:20:23.765Z,30.06
2023-04-30T17:25:25.495Z,31.40
2023-04-30T17:30:28.334Z,31.93
2023-04-30T17:35:30.004Z,32.41
2023-04-30T17:40:33.173Z,32.51
2023-04-30T17:45:35.013Z,32.61
2023-04-30T17:50:36.986Z,33.16
2023-04-30T17:55:38.908Z,34.38
2023-04-30T18:00:42.216Z,35.39
2023-04-30T18:05:45.108Z,36.55
2023-04-30T18:10:48.020Z,37.98
2023-04-30T18:15:49.860Z,38.98
2023-04-30T18:20:53.080Z,40.09
2023-04-30T18:25:54.936Z,40.93
2023-04-30T18:30:56.989Z,41.93
2023-04-30T18:36:01.483Z,43.06
2023-04-30T18:41:05.124Z,43.99
2023-04-30T18:46:06.840Z,44.68
2023-04-30T18:51:08.783Z,45.76
2023-04-30T18:56:11.795Z,46.47
2023-04-30T19:01:13.660Z,47.22
2023-04-30T19:06:15.697Z,47.73
2023-04-30T19:11:17.638Z,48.79
2023-04-30T19:16:19.449Z,49.83
2023-04-30T19:21:21.492Z,50.66
2023-04-30T19:26:25.660Z,51.02
2023-04-30T19:31:27.394Z,51.58
2023-04-30T19:36:29.340Z,52.15
2023-04-30T19:41:31.169Z,52.93
2023-04-30T19:46:32.915Z,53.47
2023-04-30T19:51:35.160Z,53.79
2023-04-30T19:56:36.877Z,54.12
2023-04-30T20:01:38.739Z,54.16
2023-04-30T20:06:40.534Z,54.60
2023-04-30T20:11:42.368Z,54.72
2023-04-30T20:16:44.438Z,54.90
2023-04-30T20:21:48.382Z,54.99
2023-04-30T20:26:50.675Z,55.20
2023-04-30T20:31:52.953Z,55.22
2023-04-30T20:36:55.265Z,55.61
2023-04-30T20:41:59.011Z,56.11
2023-04-30T20:47:02.933Z,56.79
2023-04-30T20:52:05.752Z,58.24
2023-04-30T20:57:08.301Z,58.35
2023-04-30T21:02:10.323Z,58.56
2023-04-30T21:07:12.286Z,58.82
2023-04-30T21:12:14.625Z,58.89
2023-04-30T21:17:16.321Z,59.50
2023-04-30T21:22:18.203Z,60.19
2023-04-30T21:27:21.062Z,61.02
2023-04-30T21:32:23.036Z,61.20
2023-04-30T21:37:24.801Z,61.45
2023-04-30T21:42:27.551Z,61.81
2023-04-30T21:47:30.844Z,62.30
2023-04-30T21:52:34.624Z,62.45
2023-04-30T21:57:36.649Z,62.84
2023-04-30T22:02:38.323Z,62.73
2023-04-30T22:07:40.780Z,62.19
2023-04-30T22:12:45.403Z,61.39
2023-04-30T22:17:49.597Z,62.74
2023-04-30T22:22:52.744Z,63.04
2023-04-30T22:27:54.513Z,64.10
2023-04-30T22:32:56.914Z,67.68
2023-04-30T22:37:59.267Z,67.17
2023-04-30T22:43:01.997Z,66.58
2023-04-30T22:48:04.793Z,66.76
2023-04-30T22:53:07.023Z,67.07
2023-04-30T22:58:08.745Z,67.36
2023-04-30T23:03:11.419Z,68.11
2023-04-30T23:08:13.236Z,67.88
2023-04-30T23:13:21.445Z,68.27
2023-04-30T23:18:24.041Z,69.12
2023-04-30T23:23:26.716Z,69.88
2023-04-30T23:28:28.440Z,70.15
2023-04-30T23:33:30.268Z,69.87
2023-04-30T23:38:32.598Z,69.92
2023-04-30T23:43:35.129Z,69.91
2023-04-30T23:48:39.050Z,70.10
2023-04-30T23:53:40.783Z,70.16
2023-04-30T23:58:42.642Z,70.29
